R. Catalunya — EALC — position and weather

sailwx.info

Track history (hours):
 
Tides and Currents Weather Stations Pressure Air Temp Water Temp Dewpoint Dewpoint Depression Visibility Wind Speed Wind Dir Waves Ship Positions

R. Catalunya

Last reported at 2015-Apr-24 10:21 UTC. Time now 2015-Apr-25 21:56 UTC.
Position N 41°21' E 002°09'.

Length 26 m.

Type: Tug. MMSI: 224149970.

Date/timePositionNaut miles runAvg speedWind from/ knotsBaromVisibWave heightAir tempDewpointWater temp
2015-Apr-24 10:21N 41°21' E 002°09'0 0.0
2015-Apr-24 09:21N 41°21' E 002°09'0 0.0
2015-Apr-23 16:03N 41°21' E 002°09'0 0.0
2015-Apr-23 15:33N 41°21' E 002°09'2 0.8
2015-Apr-23 13:29N 41°19' E 002°10'1 1.3
2015-Apr-23 12:32N 41°20' E 002°09'1 0.7
2015-Apr-23 11:31N 41°21' E 002°09'0 0.0
2015-Apr-23 10:25N 41°21' E 002°09'2 2.6
2015-Apr-23 09:32N 41°19' E 002°10'2 2.0
2015-Apr-23 08:25N 41°21' E 002°09'0 0.0
2015-Apr-23 05:25N 41°21' E 002°09'1 0.1
2015-Apr-22 18:14N 41°20' E 002°09'1 0.3
2015-Apr-22 15:24N 41°21' E 002°09'0 0.0
2015-Apr-22 14:18N 41°21' E 002°09'0 0.2
2015-Apr-22 13:27N 41°21' E 002°09'0 0.0
2015-Apr-22 12:17N 41°21' E 002°09'0 0.2
2015-Apr-22 11:30N 41°21' E 002°09'0 0.2
2015-Apr-22 09:24N 41°20' E 002°09'1 1.5
2015-Apr-22 08:33N 41°19' E 002°10'2 0.8
2015-Apr-22 06:19N 41°21' E 002°09'2 1.9
2015-Apr-22 05:29N 41°19' E 002°10'2 1.1
2015-Apr-22 04:08N 41°21' E 002°09'0 0.0
2015-Apr-22 01:08N 41°21' E 002°09'0 0.0
2015-Apr-22 00:32N 41°21' E 002°09'0 0.0
2015-Apr-21 23:29N 41°21' E 002°09'0 0.0
2015-Apr-21 22:29N 41°21' E 002°09'0 0.0
2015-Apr-21 20:19N 41°21' E 002°09'0 0.0
2015-Apr-21 19:25N 41°21' E 002°09'1 0.6
2015-Apr-21 17:23N 41°20' E 002°10'1 1.3
2015-Apr-21 16:20N 41°21' E 002°09'1 1.0
2015-Apr-21 15:26N 41°21' E 002°10'1 0.2
2015-Apr-21 12:32N 41°21' E 002°10'1 1.3
2015-Apr-21 11:28N 41°19' E 002°10'1 0.3
2015-Apr-21 07:32N 41°18' E 002°09'2 2.2
2015-Apr-21 06:25N 41°21' E 002°09'0 0.2
2015-Apr-21 05:13N 41°20' E 002°09'0 0.3
2015-Apr-21 04:33N 41°21' E 002°09'1 0.1
2015-Apr-20 15:22N 41°19' E 002°10'1 0.1
2015-Apr-20 10:10N 41°20' E 002°10'1 0.0
2015-Apr-19 19:10N 41°20' E 002°10'1 0.0
2015-Apr-19 00:24N 41°20' E 002°09'2 0.9
2015-Apr-18 22:19N 41°18' E 002°09'1 1.7
2015-Apr-18 21:32N 41°20' E 002°10'1 0.6
2015-Apr-18 19:32N 41°21' E 002°10'0 0.3
2015-Apr-18 18:19N 41°21' E 002°09'1 0.5
2015-Apr-18 16:25N 41°21' E 002°10'1 0.5
2015-Apr-18 14:24N 41°22' E 002°11'0 0.0
2015-Apr-18 09:18N 41°22' E 002°11'3 0.5
2015-Apr-18 03:22N 41°19' E 002°10'2 1.8
2015-Apr-18 02:25N 41°21' E 002°09'0 0.2
2015-Apr-18 00:28N 41°20' E 002°09'1 0.4
2015-Apr-17 22:33N 41°20' E 002°10'1 0.7
2015-Apr-17 21:21N 41°21' E 002°09'0 0.0
2015-Apr-17 20:15N 41°21' E 002°09'0 0.0
2015-Apr-17 19:33N 41°21' E 002°09'2 2.4
2015-Apr-17 18:33N 41°18' E 002°09'2 0.4
2015-Apr-17 13:16N 41°20' E 002°09'1 0.1
2015-Apr-17 05:31N 41°21' E 002°10'1 0.4
2015-Apr-17 03:25N 41°20' E 002°09'0 0.2
2015-Apr-17 01:16N 41°21' E 002°09'2 2.2
2015-Apr-17 00:15N 41°19' E 002°09'1 0.7
2015-Apr-16 23:33N 41°19' E 002°09'0 0.1
2015-Apr-16 22:30N 41°19' E 002°10'2 0.6
2015-Apr-16 19:28N 41°21' E 002°10'0 0.1
2015-Apr-16 15:33N 41°21' E 002°10'1 0.1
2015-Apr-16 04:27N 41°20' E 002°10'1 0.1
2015-Apr-15 12:08N 41°21' E 002°09'0 0.0
2015-Apr-15 11:32N 41°21' E 002°09'0 0.0
2015-Apr-15 10:26N 41°21' E 002°09'0 0.0
2015-Apr-15 09:26N 41°21' E 002°09'0 0.0
2015-Apr-15 08:32N 41°21' E 002°09'0 0.0
2015-Apr-15 07:31N 41°21' E 002°09'1 1.5
2015-Apr-15 06:30N 41°19' E 002°10'1 1.1
2015-Apr-15 05:33N 41°20' E 002°10'1 0.7
2015-Apr-15 04:30N 41°21' E 002°09'2 1.7
2015-Apr-15 03:33N 41°19' E 002°10'2 0.3
2015-Apr-14 21:24N 41°21' E 002°09'  
Track history (hours):
 
Tides and Currents Weather Stations Pressure Air Temp Water Temp Dewpoint Dewpoint Depression Visibility Wind Speed Wind Dir Waves Ship Positions

R. Catalunya

Last reported at 2015-Apr-24 10:21 UTC. Time now 2015-Apr-25 21:56 UTC.
Position N 41°21' E 002°09'.

Length 26 m.

Type: Tug. MMSI: 224149970.

Date/timePositionNaut miles runAvg speedWind from/ knotsBaromVisibWave heightAir tempDewpointWater temp
2015-Apr-24 10:21N 41°21' E 002°09'0 0.0
2015-Apr-24 09:21N 41°21' E 002°09'0 0.0
2015-Apr-23 16:03N 41°21' E 002°09'0 0.0
2015-Apr-23 15:33N 41°21' E 002°09'2 0.8
2015-Apr-23 13:29N 41°19' E 002°10'1 1.3
2015-Apr-23 12:32N 41°20' E 002°09'1 0.7
2015-Apr-23 11:31N 41°21' E 002°09'0 0.0
2015-Apr-23 10:25N 41°21' E 002°09'2 2.6
2015-Apr-23 09:32N 41°19' E 002°10'2 2.0
2015-Apr-23 08:25N 41°21' E 002°09'0 0.0
2015-Apr-23 05:25N 41°21' E 002°09'1 0.1
2015-Apr-22 18:14N 41°20' E 002°09'1 0.3
2015-Apr-22 15:24N 41°21' E 002°09'0 0.0
2015-Apr-22 14:18N 41°21' E 002°09'0 0.2
2015-Apr-22 13:27N 41°21' E 002°09'0 0.0
2015-Apr-22 12:17N 41°21' E 002°09'0 0.2
2015-Apr-22 11:30N 41°21' E 002°09'0 0.2
2015-Apr-22 09:24N 41°20' E 002°09'1 1.5
2015-Apr-22 08:33N 41°19' E 002°10'2 0.8
2015-Apr-22 06:19N 41°21' E 002°09'2 1.9
2015-Apr-22 05:29N 41°19' E 002°10'2 1.1
2015-Apr-22 04:08N 41°21' E 002°09'0 0.0
2015-Apr-22 01:08N 41°21' E 002°09'0 0.0
2015-Apr-22 00:32N 41°21' E 002°09'0 0.0
2015-Apr-21 23:29N 41°21' E 002°09'0 0.0
2015-Apr-21 22:29N 41°21' E 002°09'0 0.0
2015-Apr-21 20:19N 41°21' E 002°09'0 0.0
2015-Apr-21 19:25N 41°21' E 002°09'1 0.6
2015-Apr-21 17:23N 41°20' E 002°10'1 1.3
2015-Apr-21 16:20N 41°21' E 002°09'1 1.0
2015-Apr-21 15:26N 41°21' E 002°10'1 0.2
2015-Apr-21 12:32N 41°21' E 002°10'1 1.3
2015-Apr-21 11:28N 41°19' E 002°10'1 0.3
2015-Apr-21 07:32N 41°18' E 002°09'2 2.2
2015-Apr-21 06:25N 41°21' E 002°09'0 0.2
2015-Apr-21 05:13N 41°20' E 002°09'0 0.3
2015-Apr-21 04:33N 41°21' E 002°09'1 0.1
2015-Apr-20 15:22N 41°19' E 002°10'1 0.1
2015-Apr-20 10:10N 41°20' E 002°10'1 0.0
2015-Apr-19 19:10N 41°20' E 002°10'1 0.0
2015-Apr-19 00:24N 41°20' E 002°09'2 0.9
2015-Apr-18 22:19N 41°18' E 002°09'1 1.7
2015-Apr-18 21:32N 41°20' E 002°10'1 0.6
2015-Apr-18 19:32N 41°21' E 002°10'0 0.3
2015-Apr-18 18:19N 41°21' E 002°09'1 0.5
2015-Apr-18 16:25N 41°21' E 002°10'1 0.5
2015-Apr-18 14:24N 41°22' E 002°11'0 0.0
2015-Apr-18 09:18N 41°22' E 002°11'3 0.5
2015-Apr-18 03:22N 41°19' E 002°10'2 1.8
2015-Apr-18 02:25N 41°21' E 002°09'0 0.2
2015-Apr-18 00:28N 41°20' E 002°09'1 0.4
2015-Apr-17 22:33N 41°20' E 002°10'1 0.7
2015-Apr-17 21:21N 41°21' E 002°09'0 0.0
2015-Apr-17 20:15N 41°21' E 002°09'0 0.0
2015-Apr-17 19:33N 41°21' E 002°09'2 2.4
2015-Apr-17 18:33N 41°18' E 002°09'2 0.4
2015-Apr-17 13:16N 41°20' E 002°09'1 0.1
2015-Apr-17 05:31N 41°21' E 002°10'1 0.4
2015-Apr-17 03:25N 41°20' E 002°09'0 0.2
2015-Apr-17 01:16N 41°21' E 002°09'2 2.2
2015-Apr-17 00:15N 41°19' E 002°09'1 0.7
2015-Apr-16 23:33N 41°19' E 002°09'0 0.1
2015-Apr-16 22:30N 41°19' E 002°10'2 0.6
2015-Apr-16 19:28N 41°21' E 002°10'0 0.1
2015-Apr-16 15:33N 41°21' E 002°10'1 0.1
2015-Apr-16 04:27N 41°20' E 002°10'1 0.1
2015-Apr-15 12:08N 41°21' E 002°09'0 0.0
2015-Apr-15 11:32N 41°21' E 002°09'0 0.0
2015-Apr-15 10:26N 41°21' E 002°09'0 0.0
2015-Apr-15 09:26N 41°21' E 002°09'0 0.0
2015-Apr-15 08:32N 41°21' E 002°09'0 0.0
2015-Apr-15 07:31N 41°21' E 002°09'1 1.5
2015-Apr-15 06:30N 41°19' E 002°10'1 1.1
2015-Apr-15 05:33N 41°20' E 002°10'1 0.7
2015-Apr-15 04:30N 41°21' E 002°09'2 1.7
2015-Apr-15 03:33N 41°19' E 002°10'2 0.3
2015-Apr-14 21:24N 41°21' E 002°09'  

Dump ship's entire track history